createdAt,value
2022-10-24T00:00:04.338Z,2.77
2022-10-24T00:02:30.855Z,2.30
2022-10-24T00:04:57.310Z,2.20
2022-10-24T00:07:23.752Z,2.37
2022-10-24T00:09:50.146Z,2.47
2022-10-24T00:12:19.608Z,2.33
2022-10-24T00:14:46.709Z,2.40
2022-10-24T00:17:13.132Z,2.30
2022-10-24T00:19:39.516Z,1.97
2022-10-24T00:22:06.044Z,1.87
2022-10-24T00:24:32.460Z,2.50
2022-10-24T00:26:58.881Z,2.50
2022-10-24T00:29:25.281Z,2.63
2022-10-24T00:31:51.735Z,2.40
2022-10-24T00:34:18.373Z,2.47
2022-10-24T00:36:44.813Z,2.27
2022-10-24T00:39:11.967Z,2.20
2022-10-24T00:41:44.885Z,2.37
2022-10-24T00:44:38.503Z,2.50
2022-10-24T00:47:14.621Z,2.17
2022-10-24T00:49:46.473Z,2.60
2022-10-24T00:52:15.625Z,2.40
2022-10-24T00:54:42.334Z,2.90
2022-10-24T00:57:13.797Z,2.27
2022-10-24T00:59:42.669Z,2.67
2022-10-24T01:02:10.203Z,2.83
2022-10-24T01:04:36.836Z,2.53
2022-10-24T01:07:17.913Z,3.80
2022-10-24T01:10:22.136Z,3.03
2022-10-24T01:13:12.509Z,2.37
2022-10-24T01:15:45.010Z,2.73
2022-10-24T01:18:23.865Z,2.90
2022-10-24T01:21:11.431Z,2.30
2022-10-24T01:24:15.567Z,2.33
2022-10-24T01:27:03.201Z,2.53
2022-10-24T01:29:53.078Z,2.43
2022-10-24T01:32:34.658Z,2.77
2022-10-24T01:35:07.742Z,2.20
2022-10-24T01:37:39.670Z,3.13
2022-10-24T01:40:13.747Z,2.80
2022-10-24T01:42:40.920Z,2.40
2022-10-24T01:45:08.840Z,2.77
2022-10-24T01:47:40.419Z,2.40
2022-10-24T01:50:10.458Z,2.30
2022-10-24T01:52:39.639Z,2.33
2022-10-24T01:55:06.906Z,2.53
2022-10-24T01:57:34.252Z,2.97
2022-10-24T02:00:01.043Z,2.50
2022-10-24T02:02:40.071Z,2.90
2022-10-24T02:05:14.470Z,3.10
2022-10-24T02:07:43.098Z,2.40
2022-10-24T02:10:13.367Z,2.80
2022-10-24T02:12:48.375Z,2.20
2022-10-24T02:15:20.855Z,2.30
2022-10-24T02:17:47.496Z,2.50
2022-10-24T02:20:14.221Z,3.07
2022-10-24T02:22:40.540Z,2.40
2022-10-24T02:25:13.675Z,2.80
2022-10-24T02:27:46.087Z,2.97
2022-10-24T02:30:16.431Z,2.33
2022-10-24T02:32:49.379Z,2.47
2022-10-24T02:35:18.285Z,2.97
2022-10-24T02:37:48.259Z,2.90
2022-10-24T02:40:16.901Z,2.67
2022-10-24T02:42:44.624Z,2.20
2022-10-24T02:45:12.760Z,2.50
2022-10-24T02:47:40.696Z,2.30
2022-10-24T02:50:07.800Z,2.60
2022-10-24T02:52:34.912Z,2.37
2022-10-24T02:55:01.404Z,2.63
2022-10-24T02:57:28.202Z,2.87
2022-10-24T02:59:54.598Z,3.00
2022-10-24T03:02:21.037Z,2.37
2022-10-24T03:04:47.437Z,2.60
2022-10-24T03:07:13.883Z,2.60
2022-10-24T03:09:40.313Z,3.27
2022-10-24T03:12:06.990Z,2.67
2022-10-24T03:14:33.635Z,2.70
2022-10-24T03:17:00.114Z,2.87
2022-10-24T03:19:26.527Z,2.80
2022-10-24T03:21:52.947Z,2.37
2022-10-24T03:24:26.939Z,2.63
2022-10-24T03:27:04.098Z,3.07
2022-10-24T03:29:30.483Z,3.40
2022-10-24T03:31:56.897Z,3.10
2022-10-24T03:34:23.422Z,3.03
2022-10-24T03:36:49.854Z,3.30
2022-10-24T03:39:16.291Z,2.90
2022-10-24T03:41:42.721Z,3.50
2022-10-24T03:44:09.393Z,2.97
2022-10-24T03:46:35.851Z,3.10
2022-10-24T03:51:33.753Z,3.40
2022-10-24T03:54:00.151Z,3.20
2022-10-24T03:56:26.549Z,2.73
2022-10-24T03:58:53.007Z,3.50
2022-10-24T04:01:19.755Z,3.40
2022-10-24T04:03:46.491Z,3.37
2022-10-24T04:06:13.546Z,3.33
2022-10-24T04:08:40.040Z,3.53
2022-10-24T04:11:07.310Z,3.60
2022-10-24T04:13:33.886Z,3.50
2022-10-24T04:16:00.278Z,3.43
2022-10-24T04:18:26.709Z,3.13
2022-10-24T04:20:53.151Z,3.27
2022-10-24T04:23:19.746Z,3.33
2022-10-24T04:25:47.310Z,3.20
2022-10-24T04:28:13.710Z,3.20
2022-10-24T04:30:40.145Z,3.27
2022-10-24T04:33:06.576Z,2.93
2022-10-24T04:35:33.026Z,3.43
2022-10-24T04:37:59.471Z,3.00
2022-10-24T04:40:25.918Z,3.20
2022-10-24T04:42:52.358Z,2.87
2022-10-24T04:45:18.873Z,3.07
2022-10-24T04:47:45.463Z,3.30
2022-10-24T04:50:12.142Z,2.93
2022-10-24T04:52:38.698Z,3.43
2022-10-24T04:55:05.446Z,3.47
2022-10-24T04:57:31.860Z,3.43
2022-10-24T04:59:58.415Z,2.80
2022-10-24T05:02:24.983Z,3.73
2022-10-24T05:04:51.716Z,2.50
2022-10-24T05:07:20.687Z,3.10
2022-10-24T05:09:47.691Z,3.30
2022-10-24T05:12:14.154Z,3.37
2022-10-24T05:14:40.610Z,3.10
2022-10-24T05:17:07.054Z,3.17
2022-10-24T05:19:33.504Z,3.70
2022-10-24T05:21:59.923Z,3.63
2022-10-24T05:24:26.310Z,3.53
2022-10-24T05:26:52.743Z,3.13
2022-10-24T05:29:19.168Z,3.33
2022-10-24T05:31:45.565Z,3.17
2022-10-24T05:34:12.211Z,3.87
2022-10-24T05:36:38.680Z,3.60
2022-10-24T05:39:05.489Z,3.83
2022-10-24T05:41:32.669Z,4.17
2022-10-24T05:43:59.146Z,3.53
2022-10-24T05:46:25.703Z,4.10
2022-10-24T05:48:52.096Z,3.47
2022-10-24T05:51:18.537Z,3.13
2022-10-24T05:53:45.325Z,3.77
2022-10-24T05:56:11.729Z,3.70
2022-10-24T05:58:38.244Z,3.57
2022-10-24T06:01:04.966Z,3.33
2022-10-24T06:03:31.486Z,4.17
2022-10-24T06:05:57.945Z,3.47
2022-10-24T06:08:24.358Z,3.90
2022-10-24T06:10:51.411Z,3.30
2022-10-24T06:13:18.310Z,3.77
2022-10-24T06:15:44.745Z,4.10
2022-10-24T06:18:11.472Z,3.57
2022-10-24T06:20:38.302Z,3.80
2022-10-24T06:23:04.821Z,3.40
2022-10-24T06:25:31.282Z,3.97
2022-10-24T06:27:57.892Z,3.50
2022-10-24T06:30:24.832Z,3.37
2022-10-24T06:32:51.472Z,3.23
2022-10-24T06:35:19.169Z,3.30
2022-10-24T06:37:48.046Z,4.17
2022-10-24T06:40:15.397Z,3.17
2022-10-24T06:42:41.833Z,3.27
2022-10-24T06:45:08.551Z,3.93
2022-10-24T06:47:35.174Z,3.80
2022-10-24T06:50:01.717Z,3.40
2022-10-24T06:52:28.225Z,3.90
2022-10-24T06:54:54.942Z,3.30
2022-10-24T06:57:21.681Z,3.43
2022-10-24T06:59:48.102Z,3.90
2022-10-24T07:02:15.536Z,3.50
2022-10-24T07:04:42.257Z,3.70
2022-10-24T07:07:14.537Z,3.57
2022-10-24T07:09:41.007Z,3.17
2022-10-24T07:12:07.871Z,2.83
2022-10-24T07:14:34.264Z,3.07
2022-10-24T07:17:00.680Z,3.43
2022-10-24T07:19:27.132Z,3.07
2022-10-24T07:21:53.747Z,3.50
2022-10-24T07:24:21.316Z,3.17
2022-10-24T07:26:47.726Z,3.03
2022-10-24T07:29:14.188Z,2.83
2022-10-24T07:31:40.784Z,4.43
2022-10-24T07:34:08.637Z,2.90
2022-10-24T07:36:38.903Z,3.07
2022-10-24T07:39:09.480Z,2.97
2022-10-24T07:41:38.167Z,2.70
2022-10-24T07:44:04.619Z,2.63
2022-10-24T07:46:31.040Z,2.93
2022-10-24T07:48:57.549Z,2.83
2022-10-24T07:51:23.992Z,2.30
2022-10-24T07:53:50.672Z,2.50
2022-10-24T07:56:18.054Z,2.57
2022-10-24T07:58:46.083Z,2.30
2022-10-24T08:01:16.244Z,2.50
2022-10-24T08:03:42.813Z,2.60
2022-10-24T08:06:17.762Z,1.90
2022-10-24T08:08:45.044Z,2.30
2022-10-24T08:11:21.671Z,2.50
2022-10-24T08:13:49.445Z,2.00
2022-10-24T08:16:16.981Z,2.33
2022-10-24T08:18:43.971Z,2.30
2022-10-24T08:21:13.927Z,2.73
2022-10-24T08:23:43.183Z,2.57
2022-10-24T08:26:23.671Z,2.20
2022-10-24T08:28:50.773Z,2.10
2022-10-24T08:31:19.971Z,2.20
2022-10-24T08:33:47.454Z,2.07
2022-10-24T08:36:20.545Z,2.10
2022-10-24T08:38:47.913Z,2.40
2022-10-24T08:41:25.991Z,1.70
2022-10-24T08:43:56.915Z,2.03
2022-10-24T08:46:50.805Z,2.07
2022-10-24T08:49:38.679Z,2.07
2022-10-24T08:52:13.325Z,2.20
2022-10-24T08:54:41.835Z,2.27
2022-10-24T08:57:26.845Z,2.43
2022-10-24T08:59:58.291Z,2.23
2022-10-24T09:02:27.869Z,1.80
2022-10-24T09:05:04.766Z,2.17
2022-10-24T09:07:31.544Z,2.50
2022-10-24T09:10:12.303Z,1.70
2022-10-24T09:12:40.520Z,1.97
2022-10-24T09:15:16.636Z,2.10
2022-10-24T09:17:45.378Z,1.83
2022-10-24T09:20:24.727Z,2.13
2022-10-24T09:22:58.146Z,2.23
2022-10-24T09:25:35.529Z,1.90
2022-10-24T09:28:06.052Z,1.53
2022-10-24T09:30:34.281Z,2.20
2022-10-24T09:33:08.369Z,1.60
2022-10-24T09:35:35.819Z,1.40
2022-10-24T09:38:35.705Z,1.43
2022-10-24T09:41:08.872Z,1.60
2022-10-24T09:43:44.687Z,1.30
2022-10-24T09:46:17.605Z,1.40
2022-10-24T09:48:57.056Z,1.53
2022-10-24T09:51:33.898Z,1.70
2022-10-24T09:54:19.442Z,1.50
2022-10-24T09:56:54.325Z,1.43
2022-10-24T09:59:46.535Z,1.70
2022-10-24T10:02:56.231Z,1.40
2022-10-24T10:05:22.711Z,1.40
2022-10-24T10:07:50.458Z,1.47
2022-10-24T10:10:32.145Z,1.40
2022-10-24T10:13:06.452Z,1.60
2022-10-24T10:15:46.672Z,1.50
2022-10-24T10:18:25.051Z,1.60
2022-10-24T10:21:01.642Z,1.30
2022-10-24T10:23:45.506Z,1.60
2022-10-24T10:26:16.138Z,1.60
2022-10-24T10:28:54.099Z,1.50
2022-10-24T10:31:47.624Z,1.30
2022-10-24T10:34:22.209Z,1.70
2022-10-24T10:37:10.499Z,2.03
2022-10-24T10:39:51.275Z,1.70
2022-10-24T10:42:50.898Z,1.60
2022-10-24T10:45:30.036Z,1.57
2022-10-24T10:48:13.559Z,1.40
2022-10-24T10:50:41.087Z,1.20
2022-10-24T10:53:30.161Z,1.50
2022-10-24T10:56:31.919Z,1.27
2022-10-24T10:59:36.450Z,1.67
2022-10-24T11:02:34.157Z,0.97
2022-10-24T11:05:22.131Z,1.90
2022-10-24T11:07:55.631Z,1.27
2022-10-24T11:10:28.458Z,1.50
2022-10-24T11:12:55.847Z,1.60
2022-10-24T11:15:43.861Z,1.60
2022-10-24T11:18:38.711Z,1.90
2022-10-24T11:21:10.279Z,1.40
2022-10-24T11:23:59.785Z,1.67
2022-10-24T11:26:53.566Z,1.30
2022-10-24T11:29:33.585Z,1.40
2022-10-24T11:32:14.997Z,1.33
2022-10-24T11:35:02.817Z,1.27
2022-10-24T11:37:39.001Z,1.70
2022-10-24T11:40:17.743Z,1.77
2022-10-24T11:43:21.316Z,1.40
2022-10-24T11:46:00.144Z,1.23
2022-10-24T11:48:38.945Z,1.83
2022-10-24T11:51:13.857Z,1.60
2022-10-24T11:53:51.174Z,1.63
2022-10-24T11:56:41.140Z,1.53
2022-10-24T11:59:13.125Z,1.23
2022-10-24T12:02:02.823Z,1.30
2022-10-24T12:04:32.325Z,1.50
2022-10-24T12:07:40.142Z,1.70
2022-10-24T12:10:28.409Z,1.60
2022-10-24T12:12:54.865Z,1.60
2022-10-24T12:15:32.200Z,1.63
2022-10-24T12:18:04.540Z,1.50
2022-10-24T12:20:31.780Z,2.43
2022-10-24T12:23:00.114Z,1.70
2022-10-24T12:25:32.134Z,1.37
2022-10-24T12:28:08.665Z,1.70
2022-10-24T12:30:36.622Z,1.80
2022-10-24T12:33:03.202Z,1.60
2022-10-24T12:35:34.131Z,1.97
2022-10-24T12:38:02.002Z,1.60
2022-10-24T12:40:52.285Z,1.77
2022-10-24T12:43:44.574Z,1.30
2022-10-24T12:46:22.596Z,1.80
2022-10-24T12:48:58.810Z,1.30
2022-10-24T12:51:33.929Z,1.30
2022-10-24T12:54:08.014Z,1.33
2022-10-24T12:56:34.604Z,1.27
2022-10-24T12:59:16.884Z,1.30
2022-10-24T13:01:43.861Z,1.60
2022-10-24T13:04:31.389Z,1.50
2022-10-24T13:07:27.120Z,1.47
2022-10-24T13:10:30.855Z,1.90
2022-10-24T13:15:58.798Z,1.83
2022-10-24T13:18:55.566Z,1.53
2022-10-24T13:21:50.423Z,1.17
2022-10-24T13:24:16.834Z,1.30
2022-10-24T13:26:51.268Z,1.30
2022-10-24T13:29:23.889Z,1.40
2022-10-24T13:32:18.662Z,1.27
2022-10-24T13:34:50.312Z,1.40
2022-10-24T13:37:23.840Z,1.37
2022-10-24T13:39:57.463Z,1.57
2022-10-24T13:42:39.784Z,2.20
2022-10-24T13:45:33.387Z,1.67
2022-10-24T13:48:05.708Z,1.97
2022-10-24T13:50:34.657Z,1.53
2022-10-24T13:53:05.647Z,1.50
2022-10-24T13:55:37.282Z,1.50
2022-10-24T13:58:06.619Z,1.40
2022-10-24T14:00:37.393Z,1.30
2022-10-24T14:03:05.776Z,1.70
2022-10-24T14:05:38.382Z,1.17
2022-10-24T14:08:06.716Z,1.43
2022-10-24T14:10:33.300Z,1.23
2022-10-24T14:13:00.352Z,1.33
2022-10-24T14:15:29.786Z,1.60
2022-10-24T14:18:02.316Z,1.27
2022-10-24T14:20:30.871Z,1.33
2022-10-24T14:22:57.707Z,1.47
2022-10-24T14:25:25.725Z,1.53
2022-10-24T14:27:54.654Z,1.50
2022-10-24T14:30:24.658Z,1.80
2022-10-24T14:33:04.829Z,1.40
2022-10-24T14:35:31.436Z,1.60
2022-10-24T14:37:58.093Z,1.63
2022-10-24T14:40:24.675Z,1.63
2022-10-24T14:42:51.816Z,1.60
2022-10-24T14:45:29.583Z,1.40
2022-10-24T14:47:58.724Z,1.63
2022-10-24T14:50:43.937Z,1.50
2022-10-24T14:53:22.595Z,2.03
2022-10-24T14:55:54.203Z,1.83
2022-10-24T14:58:31.751Z,2.10
2022-10-24T15:00:59.085Z,1.73
2022-10-24T15:03:27.397Z,1.90
2022-10-24T15:06:18.511Z,1.70
2022-10-24T15:08:48.373Z,1.47
2022-10-24T15:11:24.946Z,1.87
2022-10-24T15:14:06.316Z,1.30
2022-10-24T15:16:38.667Z,1.23
2022-10-24T15:19:07.424Z,1.60
2022-10-24T15:21:39.213Z,1.63
2022-10-24T15:24:06.189Z,1.70
2022-10-24T15:26:40.608Z,1.77
2022-10-24T15:29:13.239Z,1.73
2022-10-24T15:31:42.144Z,1.70
2022-10-24T15:34:10.474Z,1.70
2022-10-24T15:36:40.363Z,1.50
2022-10-24T15:39:13.936Z,1.70
2022-10-24T15:41:40.430Z,1.70
2022-10-24T15:44:14.453Z,1.63
2022-10-24T15:46:41.540Z,2.00
2022-10-24T15:49:08.061Z,1.67
2022-10-24T15:51:37.558Z,1.80
2022-10-24T15:54:04.113Z,2.10
2022-10-24T15:56:30.508Z,1.87
2022-10-24T15:58:56.999Z,1.43
2022-10-24T16:01:32.364Z,1.93
2022-10-24T16:04:00.634Z,1.77
2022-10-24T16:06:27.208Z,2.20
2022-10-24T16:08:54.043Z,2.10
2022-10-24T16:11:21.011Z,1.37
2022-10-24T16:13:47.964Z,2.33
2022-10-24T16:16:14.640Z,1.60
2022-10-24T16:18:41.076Z,1.60
2022-10-24T16:21:07.808Z,1.57
2022-10-24T16:23:34.562Z,1.43
2022-10-24T16:26:01.056Z,2.20
2022-10-24T16:28:28.817Z,1.87
2022-10-24T16:30:55.266Z,1.30
2022-10-24T16:33:22.513Z,1.60
2022-10-24T16:35:49.121Z,1.73
2022-10-24T16:38:15.934Z,1.27
2022-10-24T16:40:45.035Z,1.40
2022-10-24T16:43:13.423Z,1.67
2022-10-24T16:45:40.225Z,1.27
2022-10-24T16:48:06.821Z,1.30
2022-10-24T16:50:33.274Z,1.50
2022-10-24T16:53:04.742Z,1.50
2022-10-24T16:55:31.542Z,1.90
2022-10-24T16:57:58.621Z,1.50
2022-10-24T17:00:25.778Z,1.30
2022-10-24T17:02:53.972Z,1.43
2022-10-24T17:05:22.877Z,1.50
2022-10-24T17:07:49.857Z,1.30
2022-10-24T17:10:19.481Z,1.57
2022-10-24T17:12:48.659Z,1.67
2022-10-24T17:15:18.092Z,1.47
2022-10-24T17:17:47.923Z,1.40
2022-10-24T17:20:14.786Z,1.73
2022-10-24T17:22:42.897Z,1.40
2022-10-24T17:25:17.653Z,1.77
2022-10-24T17:27:44.641Z,2.07
2022-10-24T17:30:17.540Z,2.10
2022-10-24T17:32:44.292Z,1.50
2022-10-24T17:35:13.509Z,1.60
2022-10-24T17:37:46.568Z,1.60
2022-10-24T17:40:16.605Z,1.57
2022-10-24T17:42:45.741Z,1.87
2022-10-24T17:45:21.082Z,1.60
2022-10-24T17:47:48.676Z,1.80
2022-10-24T17:50:15.771Z,2.20
2022-10-24T17:52:43.517Z,1.80
2022-10-24T17:55:45.009Z,2.10
2022-10-24T17:58:11.635Z,1.80
2022-10-24T18:00:38.101Z,2.43
2022-10-24T18:03:04.604Z,2.00
2022-10-24T18:05:32.715Z,2.57
2022-10-24T18:07:59.149Z,1.80
2022-10-24T18:10:25.887Z,2.03
2022-10-24T18:12:52.459Z,1.83
2022-10-24T18:15:20.053Z,1.73
2022-10-24T18:17:46.954Z,1.90
2022-10-24T18:20:15.546Z,2.00
2022-10-24T18:22:43.288Z,2.30
2022-10-24T18:25:11.520Z,2.27
2022-10-24T18:27:38.011Z,2.37
2022-10-24T18:30:05.815Z,2.20
2022-10-24T18:32:32.731Z,2.47
2022-10-24T18:34:59.287Z,2.43
2022-10-24T18:37:25.925Z,2.33
2022-10-24T18:39:53.464Z,2.60
2022-10-24T18:42:30.529Z,2.23
2022-10-24T18:44:57.334Z,2.00
2022-10-24T18:47:25.718Z,2.37
2022-10-24T18:49:52.943Z,2.23
2022-10-24T18:52:50.619Z,2.20
2022-10-24T18:55:22.364Z,2.50
2022-10-24T18:57:49.873Z,2.50
2022-10-24T19:00:22.100Z,2.53
2022-10-24T19:03:08.866Z,2.33
2022-10-24T19:05:37.924Z,2.47
2022-10-24T19:08:13.650Z,2.07
2022-10-24T19:10:40.164Z,2.90
2022-10-24T19:13:06.665Z,2.10
2022-10-24T19:15:33.295Z,2.70
2022-10-24T19:17:59.725Z,2.00
2022-10-24T19:20:26.906Z,2.30
2022-10-24T19:22:54.100Z,2.47
2022-10-24T19:25:20.582Z,2.90
2022-10-24T19:27:49.265Z,2.30
2022-10-24T19:30:16.791Z,2.73
2022-10-24T19:32:43.477Z,2.47
2022-10-24T19:35:10.131Z,2.80
2022-10-24T19:37:37.415Z,2.43
2022-10-24T19:40:04.763Z,2.50
2022-10-24T19:42:31.360Z,2.30
2022-10-24T19:44:57.924Z,2.87
2022-10-24T19:47:24.359Z,2.80
2022-10-24T19:49:50.902Z,3.20
2022-10-24T19:52:17.336Z,2.53
2022-10-24T19:54:44.204Z,2.80
2022-10-24T19:57:11.744Z,2.97
2022-10-24T19:59:38.242Z,2.73
2022-10-24T20:02:04.999Z,3.10
2022-10-24T20:04:31.505Z,3.20
2022-10-24T20:06:58.108Z,3.53
2022-10-24T20:09:24.555Z,2.80
2022-10-24T20:11:51.016Z,3.20
2022-10-24T20:14:17.528Z,3.40
2022-10-24T20:16:43.931Z,3.13
2022-10-24T20:19:10.378Z,3.17
2022-10-24T20:21:37.762Z,3.60
2022-10-24T20:24:04.564Z,3.03
2022-10-24T20:26:31.380Z,3.30
2022-10-24T20:28:58.122Z,3.00
2022-10-24T20:31:29.564Z,3.00
2022-10-24T20:34:06.757Z,3.57
2022-10-24T20:36:35.786Z,3.23
2022-10-24T20:39:02.345Z,3.17
2022-10-24T20:41:29.337Z,3.00
2022-10-24T20:43:56.251Z,3.53
2022-10-24T20:46:22.940Z,3.00
2022-10-24T20:48:49.402Z,3.40
2022-10-24T20:51:18.096Z,3.70
2022-10-24T20:53:45.015Z,2.60
2022-10-24T20:56:13.859Z,2.63
2022-10-24T20:58:42.442Z,3.23
2022-10-24T21:01:17.706Z,2.67
2022-10-24T21:03:44.507Z,3.23
2022-10-24T21:06:28.519Z,3.00
2022-10-24T21:08:57.244Z,2.80
2022-10-24T21:11:27.762Z,3.00
2022-10-24T21:13:56.879Z,3.17
2022-10-24T21:16:23.481Z,3.20
2022-10-24T21:18:49.956Z,3.40
2022-10-24T21:21:17.170Z,3.03
2022-10-24T21:23:44.154Z,2.80
2022-10-24T21:26:12.958Z,3.63
2022-10-24T21:28:40.028Z,3.20
2022-10-24T21:31:08.496Z,3.30
2022-10-24T21:33:35.590Z,3.47
2022-10-24T21:36:07.061Z,2.80
2022-10-24T21:38:33.645Z,3.30
2022-10-24T21:41:04.636Z,3.13
2022-10-24T21:43:35.868Z,3.23
2022-10-24T21:46:09.436Z,3.77
2022-10-24T21:48:36.244Z,2.97
2022-10-24T21:51:17.428Z,3.07
2022-10-24T21:53:46.233Z,3.13
2022-10-24T21:56:15.734Z,3.10
2022-10-24T21:58:49.204Z,3.10
2022-10-24T22:01:18.330Z,3.00
2022-10-24T22:03:45.035Z,3.40
2022-10-24T22:06:12.992Z,3.43
2022-10-24T22:08:39.793Z,3.70
2022-10-24T22:11:11.954Z,4.77
2022-10-24T22:13:38.892Z,3.33
2022-10-24T22:16:06.617Z,3.13
2022-10-24T22:18:33.808Z,3.20
2022-10-24T22:21:01.624Z,3.23
2022-10-24T22:23:28.805Z,3.73
2022-10-24T22:25:55.563Z,3.17
2022-10-24T22:28:22.076Z,3.37
2022-10-24T22:30:48.725Z,3.13
2022-10-24T22:33:35.848Z,3.50
2022-10-24T22:36:23.658Z,3.17
2022-10-24T22:38:54.049Z,3.70
2022-10-24T22:41:21.870Z,3.60
2022-10-24T22:43:48.857Z,3.50
2022-10-24T22:46:53.287Z,3.50
2022-10-24T22:49:44.589Z,4.10
2022-10-24T22:52:11.955Z,3.83
2022-10-24T22:54:39.066Z,3.50
2022-10-24T22:57:06.542Z,4.27
2022-10-24T22:59:33.900Z,3.83
2022-10-24T23:02:03.396Z,3.80
2022-10-24T23:04:39.125Z,4.67
2022-10-24T23:07:17.739Z,3.63
2022-10-24T23:09:44.157Z,3.73
2022-10-24T23:12:14.014Z,3.57
2022-10-24T23:14:40.814Z,3.37
2022-10-24T23:17:07.394Z,4.00
2022-10-24T23:19:34.798Z,3.40
2022-10-24T23:22:04.334Z,3.63
2022-10-24T23:24:31.099Z,3.33
2022-10-24T23:27:12.830Z,3.67
2022-10-24T23:29:44.493Z,4.67
2022-10-24T23:32:29.192Z,4.50
2022-10-24T23:34:56.328Z,3.70
2022-10-24T23:37:38.561Z,3.93
2022-10-24T23:40:19.759Z,4.63
2022-10-24T23:42:48.092Z,4.73
2022-10-24T23:45:17.419Z,4.10
2022-10-24T23:47:47.607Z,4.87
2022-10-24T23:50:32.148Z,3.60
2022-10-24T23:53:04.868Z,3.70
2022-10-24T23:55:31.644Z,4.93
2022-10-24T23:57:58.097Z,4.37
